TDR153 LJLJ-LDDU
Flight info
| Callsign | TDR153 |
|---|---|
| Flight time | 0h 46m |
| Altitude | 35000 |
| Route | LUPIX DCT ZARVE DCT RASTU DCT DEPET DCT UNIPA DCT SIPAL |
| Aircraft | A320/M-SDE3FGHIRWY/LB1 |
Departure
| Time | 2026-05-06 10:03 |
|---|---|
| Airport | Ljubljana Jože Pučnik Airport (LJLJ) |
Arrival
| Time | 2026-05-06 10:49 |
|---|---|
| Airport | Dubrovnik Ruđer Bošković Airport (LDDU) |
| Time | Latitude | Longitude | Altitude | Speed | Heading |
|---|---|---|---|---|---|
| 2026-05-06 08:46 | 46.22995 | 14.45386 | 1265 ft | 0 kts | 36° |
| 2026-05-06 09:13 | 46.23027 | 14.45420 | 1259 ft | 0 kts | 36° |
| 2026-05-06 09:52 | 46.23012 | 14.45404 | 1268 ft | 4 kts | 41° |
| 2026-05-06 09:53 | 46.22994 | 14.45375 | 1267 ft | 4 kts | 62° |
| 2026-05-06 09:53 | 46.22989 | 14.45343 | 1261 ft | 4 kts | 115° |
| 2026-05-06 09:53 | 46.22991 | 14.45335 | 1258 ft | 1 kts | 127° |
| 2026-05-06 09:55 | 46.22990 | 14.45337 | 1258 ft | 2 kts | 127° |
| 2026-05-06 09:56 | 46.22974 | 14.45369 | 1262 ft | 5 kts | 126° |
| 2026-05-06 09:56 | 46.22955 | 14.45405 | 1260 ft | 4 kts | 135° |
| 2026-05-06 09:56 | 46.22927 | 14.45401 | 1258 ft | 7 kts | 210° |
| 2026-05-06 09:56 | 46.22870 | 14.45337 | 1260 ft | 11 kts | 217° |
| 2026-05-06 09:57 | 46.22866 | 14.45255 | 1268 ft | 9 kts | 299° |
| 2026-05-06 09:57 | 46.22911 | 14.45166 | 1265 ft | 12 kts | 306° |
| 2026-05-06 09:57 | 46.22955 | 14.45075 | 1262 ft | 10 kts | 304° |
| 2026-05-06 09:57 | 46.22996 | 14.44998 | 1268 ft | 12 kts | 307° |
| 2026-05-06 09:58 | 46.23031 | 14.44931 | 1264 ft | 13 kts | 307° |
| 2026-05-06 09:58 | 46.23077 | 14.44840 | 1272 ft | 10 kts | 306° |
| 2026-05-06 09:58 | 46.23113 | 14.44769 | 1266 ft | 7 kts | 306° |
| 2026-05-06 09:58 | 46.23137 | 14.44722 | 1269 ft | 4 kts | 306° |
| 2026-05-06 09:59 | 46.23165 | 14.44667 | 1271 ft | 12 kts | 307° |
| 2026-05-06 09:59 | 46.23236 | 14.44530 | 1274 ft | 19 kts | 306° |
| 2026-05-06 09:59 | 46.23309 | 14.44387 | 1279 ft | 16 kts | 306° |
| 2026-05-06 09:59 | 46.23367 | 14.44272 | 1284 ft | 12 kts | 306° |
| 2026-05-06 10:00 | 46.23400 | 14.44179 | 1285 ft | 8 kts | 277° |
| 2026-05-06 10:00 | 46.23395 | 14.44138 | 1288 ft | 0 kts | 249° |
| 2026-05-06 10:02 | 46.23378 | 14.44105 | 1286 ft | 7 kts | 223° |
| 2026-05-06 10:02 | 46.23315 | 14.44078 | 1286 ft | 13 kts | 180° |
| 2026-05-06 10:02 | 46.23195 | 14.44159 | 1281 ft | 27 kts | 136° |
| 2026-05-06 10:02 | 46.22995 | 14.44536 | 1270 ft | 79 kts | 126° |
| 2026-05-06 10:03 | 46.22536 | 14.45434 | 1252 ft | 141 kts | 126° |
| 2026-05-06 10:03 | 46.21861 | 14.46742 | 1424 ft | 170 kts | 127° |
| 2026-05-06 10:03 | 46.21158 | 14.48089 | 2152 ft | 168 kts | 125° |
| 2026-05-06 10:03 | 46.20460 | 14.49434 | 2867 ft | 167 kts | 129° |
| 2026-05-06 10:04 | 46.19768 | 14.50779 | 3527 ft | 167 kts | 132° |
| 2026-05-06 10:04 | 46.19078 | 14.52131 | 4158 ft | 167 kts | 133° |
| 2026-05-06 10:04 | 46.18369 | 14.53511 | 4558 ft | 181 kts | 134° |
| 2026-05-06 10:04 | 46.17567 | 14.55048 | 4710 ft | 202 kts | 134° |
| 2026-05-06 10:05 | 46.16685 | 14.56742 | 4857 ft | 226 kts | 134° |
| 2026-05-06 10:05 | 46.15690 | 14.58663 | 5140 ft | 251 kts | 132° |
| 2026-05-06 10:05 | 46.14615 | 14.60752 | 5691 ft | 265 kts | 132° |
| 2026-05-06 10:05 | 46.13508 | 14.62923 | 6469 ft | 272 kts | 132° |
| 2026-05-06 10:06 | 46.12378 | 14.65140 | 7256 ft | 277 kts | 133° |
| 2026-05-06 10:06 | 46.11229 | 14.67393 | 8073 ft | 281 kts | 133° |
| 2026-05-06 10:06 | 46.10060 | 14.69684 | 8922 ft | 285 kts | 133° |
| 2026-05-06 10:06 | 46.08872 | 14.72003 | 9771 ft | 290 kts | 133° |
| 2026-05-06 10:07 | 46.07650 | 14.74363 | 10332 ft | 303 kts | 133° |
| 2026-05-06 10:07 | 46.06331 | 14.76877 | 10579 ft | 326 kts | 133° |
| 2026-05-06 10:07 | 46.04912 | 14.79573 | 10861 ft | 347 kts | 132° |
| 2026-05-06 10:07 | 46.03331 | 14.82214 | 11465 ft | 348 kts | 144° |
| 2026-05-06 10:08 | 46.01342 | 14.84179 | 12185 ft | 347 kts | 152° |
| 2026-05-06 10:08 | 45.99275 | 14.86014 | 12881 ft | 351 kts | 152° |
| 2026-05-06 10:08 | 45.97174 | 14.87858 | 13550 ft | 356 kts | 152° |
| 2026-05-06 10:08 | 45.95047 | 14.89721 | 14174 ft | 360 kts | 152° |
| 2026-05-06 10:09 | 45.92900 | 14.91604 | 14778 ft | 364 kts | 152° |
| 2026-05-06 10:09 | 45.90729 | 14.93510 | 15395 ft | 367 kts | 152° |
| 2026-05-06 10:09 | 45.88538 | 14.95431 | 16017 ft | 371 kts | 152° |
| 2026-05-06 10:09 | 45.86320 | 14.97345 | 16618 ft | 374 kts | 153° |
| 2026-05-06 10:10 | 45.84070 | 14.99258 | 17215 ft | 377 kts | 153° |
| 2026-05-06 10:10 | 45.81800 | 15.01176 | 17808 ft | 381 kts | 153° |
| 2026-05-06 10:10 | 45.79508 | 15.03113 | 18392 ft | 385 kts | 153° |
| 2026-05-06 10:10 | 45.77191 | 15.05075 | 18916 ft | 388 kts | 153° |
| 2026-05-06 10:11 | 45.74860 | 15.07051 | 19445 ft | 392 kts | 153° |
| 2026-05-06 10:11 | 45.72504 | 15.09047 | 19930 ft | 396 kts | 153° |
| 2026-05-06 10:11 | 45.70118 | 15.11069 | 20436 ft | 400 kts | 153° |
| 2026-05-06 10:11 | 45.67720 | 15.13102 | 20951 ft | 403 kts | 153° |
| 2026-05-06 10:12 | 45.65300 | 15.15150 | 21455 ft | 407 kts | 153° |
| 2026-05-06 10:12 | 45.62855 | 15.17214 | 21951 ft | 410 kts | 153° |
| 2026-05-06 10:12 | 45.60389 | 15.19294 | 22442 ft | 413 kts | 153° |
| 2026-05-06 10:12 | 45.57906 | 15.21389 | 22904 ft | 416 kts | 153° |
| 2026-05-06 10:13 | 45.55406 | 15.23495 | 23360 ft | 419 kts | 153° |
| 2026-05-06 10:13 | 45.52884 | 15.25618 | 23779 ft | 422 kts | 154° |
| 2026-05-06 10:13 | 45.50349 | 15.27747 | 24144 ft | 424 kts | 154° |
| 2026-05-06 10:13 | 45.47800 | 15.29885 | 24518 ft | 426 kts | 154° |
| 2026-05-06 10:14 | 45.45241 | 15.32032 | 24885 ft | 428 kts | 154° |
| 2026-05-06 10:14 | 45.42668 | 15.34188 | 25251 ft | 430 kts | 154° |
| 2026-05-06 10:14 | 45.40081 | 15.36352 | 25605 ft | 432 kts | 154° |
| 2026-05-06 10:14 | 45.37483 | 15.38522 | 25951 ft | 434 kts | 154° |
| 2026-05-06 10:15 | 45.34906 | 15.40673 | 26295 ft | 436 kts | 154° |
| 2026-05-06 10:15 | 45.32247 | 15.42889 | 26635 ft | 438 kts | 154° |
| 2026-05-06 10:15 | 45.29646 | 15.45056 | 26951 ft | 440 kts | 154° |
| 2026-05-06 10:15 | 45.26996 | 15.47261 | 27266 ft | 443 kts | 154° |
| 2026-05-06 10:16 | 45.24331 | 15.49479 | 27587 ft | 445 kts | 154° |
| 2026-05-06 10:16 | 45.21655 | 15.51700 | 27915 ft | 446 kts | 154° |
| 2026-05-06 10:16 | 45.18969 | 15.53925 | 28221 ft | 448 kts | 154° |
| 2026-05-06 10:16 | 45.16276 | 15.56160 | 28491 ft | 450 kts | 154° |
| 2026-05-06 10:17 | 45.13564 | 15.58412 | 28726 ft | 453 kts | 155° |
| 2026-05-06 10:17 | 45.10833 | 15.60671 | 28978 ft | 456 kts | 155° |
| 2026-05-06 10:17 | 45.08088 | 15.62928 | 29228 ft | 457 kts | 155° |
| 2026-05-06 10:17 | 45.05330 | 15.65191 | 29449 ft | 460 kts | 155° |
| 2026-05-06 10:18 | 45.02553 | 15.67471 | 29678 ft | 462 kts | 155° |
| 2026-05-06 10:18 | 44.99771 | 15.69758 | 29935 ft | 463 kts | 155° |
| 2026-05-06 10:18 | 44.96988 | 15.72052 | 30233 ft | 463 kts | 155° |
| 2026-05-06 10:18 | 44.94212 | 15.74343 | 30538 ft | 462 kts | 155° |
| 2026-05-06 10:19 | 44.91450 | 15.76652 | 30819 ft | 462 kts | 154° |
| 2026-05-06 10:19 | 44.88706 | 15.79001 | 31116 ft | 461 kts | 154° |
| 2026-05-06 10:19 | 44.85970 | 15.81374 | 31351 ft | 462 kts | 153° |
| 2026-05-06 10:19 | 44.83236 | 15.83754 | 31606 ft | 462 kts | 154° |
| 2026-05-06 10:20 | 44.80503 | 15.86129 | 31889 ft | 462 kts | 154° |
| 2026-05-06 10:20 | 44.77765 | 15.88496 | 32177 ft | 461 kts | 154° |
| 2026-05-06 10:20 | 44.75031 | 15.90851 | 32459 ft | 461 kts | 154° |
| 2026-05-06 10:20 | 44.72292 | 15.93197 | 32711 ft | 460 kts | 154° |
| 2026-05-06 10:21 | 44.69558 | 15.95535 | 32945 ft | 460 kts | 154° |
| 2026-05-06 10:21 | 44.66822 | 15.97858 | 33171 ft | 459 kts | 155° |
| 2026-05-06 10:21 | 44.64067 | 16.00119 | 33447 ft | 458 kts | 156° |
| 2026-05-06 10:21 | 44.61302 | 16.02320 | 33744 ft | 456 kts | 156° |
| 2026-05-06 10:22 | 44.58532 | 16.04491 | 33975 ft | 456 kts | 156° |
| 2026-05-06 10:22 | 44.55761 | 16.06659 | 34216 ft | 456 kts | 156° |
| 2026-05-06 10:22 | 44.52999 | 16.08830 | 34482 ft | 455 kts | 156° |
| 2026-05-06 10:22 | 44.50248 | 16.11008 | 34759 ft | 453 kts | 156° |
| 2026-05-06 10:23 | 44.47510 | 16.13186 | 34950 ft | 452 kts | 156° |
| 2026-05-06 10:23 | 44.44774 | 16.15366 | 35004 ft | 452 kts | 156° |
| 2026-05-06 10:23 | 44.39314 | 16.19710 | 35004 ft | 451 kts | 156° |
| 2026-05-06 10:24 | 44.33856 | 16.24016 | 35007 ft | 450 kts | 156° |
| 2026-05-06 10:24 | 44.28389 | 16.28319 | 35016 ft | 452 kts | 156° |
| 2026-05-06 10:25 | 44.22908 | 16.32634 | 35009 ft | 452 kts | 156° |
| 2026-05-06 10:25 | 44.17425 | 16.36942 | 34995 ft | 452 kts | 156° |
| 2026-05-06 10:26 | 44.11943 | 16.41232 | 35020 ft | 452 kts | 156° |
| 2026-05-06 10:26 | 44.06470 | 16.45519 | 35024 ft | 452 kts | 155° |
| 2026-05-06 10:27 | 44.00970 | 16.49749 | 35016 ft | 451 kts | 157° |
| 2026-05-06 10:27 | 43.95349 | 16.53570 | 35010 ft | 449 kts | 160° |
| 2026-05-06 10:28 | 43.89674 | 16.57218 | 35022 ft | 450 kts | 160° |
| 2026-05-06 10:28 | 43.84017 | 16.60930 | 35024 ft | 450 kts | 159° |
| 2026-05-06 10:29 | 43.81193 | 16.62811 | 34864 ft | 451 kts | 159° |
| 2026-05-06 10:29 | 43.78372 | 16.64705 | 34627 ft | 451 kts | 159° |
| 2026-05-06 10:29 | 43.75586 | 16.66579 | 34377 ft | 451 kts | 158° |
| 2026-05-06 10:29 | 43.72763 | 16.68472 | 34137 ft | 451 kts | 158° |
| 2026-05-06 10:30 | 43.69938 | 16.70361 | 33808 ft | 451 kts | 158° |
| 2026-05-06 10:30 | 43.67097 | 16.72251 | 32739 ft | 456 kts | 158° |
| 2026-05-06 10:30 | 43.64226 | 16.74152 | 31726 ft | 459 kts | 158° |
| 2026-05-06 10:30 | 43.61336 | 16.76062 | 30782 ft | 462 kts | 159° |
| 2026-05-06 10:31 | 43.58422 | 16.77984 | 29600 ft | 467 kts | 159° |
| 2026-05-06 10:31 | 43.55501 | 16.79911 | 28940 ft | 460 kts | 158° |
| 2026-05-06 10:31 | 43.52643 | 16.81806 | 28302 ft | 453 kts | 158° |
| 2026-05-06 10:31 | 43.49817 | 16.83678 | 27616 ft | 448 kts | 158° |
| 2026-05-06 10:32 | 43.47019 | 16.85528 | 26947 ft | 444 kts | 158° |
| 2026-05-06 10:32 | 43.44243 | 16.87360 | 26286 ft | 440 kts | 158° |
| 2026-05-06 10:32 | 43.41491 | 16.89173 | 25625 ft | 437 kts | 158° |
| 2026-05-06 10:32 | 43.38760 | 16.90966 | 24987 ft | 434 kts | 158° |
| 2026-05-06 10:33 | 43.36043 | 16.92743 | 24340 ft | 431 kts | 158° |
| 2026-05-06 10:33 | 43.33345 | 16.94513 | 23711 ft | 428 kts | 158° |
| 2026-05-06 10:33 | 43.30668 | 16.96270 | 23029 ft | 425 kts | 158° |
| 2026-05-06 10:33 | 43.28015 | 16.98012 | 22444 ft | 420 kts | 158° |
| 2026-05-06 10:34 | 43.25389 | 16.99733 | 21888 ft | 416 kts | 158° |
| 2026-05-06 10:34 | 43.22793 | 17.01428 | 21352 ft | 411 kts | 158° |
| 2026-05-06 10:34 | 43.20222 | 17.03100 | 20839 ft | 407 kts | 158° |
| 2026-05-06 10:34 | 43.17676 | 17.04752 | 20346 ft | 403 kts | 158° |
| 2026-05-06 10:35 | 43.15225 | 17.06601 | 19856 ft | 403 kts | 148° |
| 2026-05-06 10:35 | 43.13080 | 17.09088 | 19345 ft | 406 kts | 136° |
| 2026-05-06 10:35 | 43.11337 | 17.12123 | 18831 ft | 407 kts | 126° |
| 2026-05-06 10:35 | 43.09772 | 17.15345 | 18279 ft | 406 kts | 126° |
| 2026-05-06 10:36 | 43.08202 | 17.18552 | 17699 ft | 404 kts | 127° |
| 2026-05-06 10:36 | 43.06639 | 17.21726 | 17151 ft | 401 kts | 127° |
| 2026-05-06 10:36 | 43.05082 | 17.24878 | 16582 ft | 399 kts | 127° |
| 2026-05-06 10:36 | 43.03535 | 17.28009 | 16025 ft | 397 kts | 127° |
| 2026-05-06 10:37 | 43.01994 | 17.31129 | 15443 ft | 395 kts | 127° |
| 2026-05-06 10:37 | 43.00458 | 17.34240 | 14862 ft | 394 kts | 127° |
| 2026-05-06 10:37 | 42.98931 | 17.37334 | 14301 ft | 392 kts | 128° |
| 2026-05-06 10:37 | 42.97408 | 17.40417 | 13711 ft | 390 kts | 127° |
| 2026-05-06 10:38 | 42.95897 | 17.43480 | 13137 ft | 387 kts | 126° |
| 2026-05-06 10:38 | 42.94406 | 17.46502 | 12537 ft | 382 kts | 126° |
| 2026-05-06 10:38 | 42.92929 | 17.49492 | 11997 ft | 377 kts | 126° |
| 2026-05-06 10:38 | 42.91468 | 17.52444 | 11437 ft | 372 kts | 127° |
| 2026-05-06 10:39 | 42.89897 | 17.55212 | 10886 ft | 365 kts | 137° |
| 2026-05-06 10:39 | 42.88153 | 17.57611 | 10753 ft | 348 kts | 138° |
| 2026-05-06 10:39 | 42.86495 | 17.59921 | 10625 ft | 333 kts | 137° |
| 2026-05-06 10:39 | 42.84911 | 17.62143 | 10501 ft | 320 kts | 136° |
| 2026-05-06 10:40 | 42.83387 | 17.64277 | 10384 ft | 308 kts | 137° |
| 2026-05-06 10:40 | 42.81915 | 17.66331 | 10262 ft | 297 kts | 137° |
| 2026-05-06 10:40 | 42.80487 | 17.68325 | 10034 ft | 291 kts | 139° |
| 2026-05-06 10:40 | 42.79081 | 17.70282 | 9730 ft | 287 kts | 139° |
| 2026-05-06 10:41 | 42.77720 | 17.72256 | 9350 ft | 287 kts | 132° |
| 2026-05-06 10:41 | 42.76669 | 17.74558 | 8777 ft | 286 kts | 123° |
| 2026-05-06 10:41 | 42.75739 | 17.76932 | 8105 ft | 283 kts | 122° |
| 2026-05-06 10:41 | 42.74825 | 17.79288 | 7453 ft | 280 kts | 122° |
| 2026-05-06 10:42 | 42.73927 | 17.81607 | 6859 ft | 275 kts | 122° |
| 2026-05-06 10:42 | 42.73039 | 17.83892 | 6272 ft | 270 kts | 122° |
| 2026-05-06 10:42 | 42.72461 | 17.85379 | 5838 ft | 267 kts | 122° |
| 2026-05-06 10:42 | 42.71590 | 17.87608 | 5330 ft | 267 kts | 122° |
| 2026-05-06 10:43 | 42.70734 | 17.89783 | 5223 ft | 255 kts | 121° |
| 2026-05-06 10:43 | 42.69913 | 17.91858 | 5049 ft | 244 kts | 122° |
| 2026-05-06 10:43 | 42.69130 | 17.93854 | 4877 ft | 234 kts | 122° |
| 2026-05-06 10:44 | 42.67650 | 17.97626 | 4528 ft | 220 kts | 122° |
| 2026-05-06 10:44 | 42.66937 | 17.99441 | 4346 ft | 216 kts | 122° |
| 2026-05-06 10:44 | 42.66234 | 18.01231 | 4181 ft | 213 kts | 121° |
| 2026-05-06 10:44 | 42.65548 | 18.02977 | 4058 ft | 208 kts | 122° |
| 2026-05-06 10:45 | 42.64870 | 18.04700 | 3815 ft | 204 kts | 121° |
| 2026-05-06 10:45 | 42.64220 | 18.06355 | 3560 ft | 194 kts | 122° |
| 2026-05-06 10:45 | 42.63602 | 18.07927 | 3314 ft | 184 kts | 122° |
| 2026-05-06 10:45 | 42.63008 | 18.09432 | 3100 ft | 179 kts | 121° |
| 2026-05-06 10:46 | 42.62422 | 18.10917 | 2832 ft | 180 kts | 121° |
| 2026-05-06 10:46 | 42.61831 | 18.12416 | 2594 ft | 179 kts | 120° |
| 2026-05-06 10:46 | 42.61248 | 18.13893 | 2353 ft | 174 kts | 121° |
| 2026-05-06 10:46 | 42.60688 | 18.15315 | 2126 ft | 166 kts | 120° |
| 2026-05-06 10:47 | 42.60163 | 18.16653 | 1895 ft | 155 kts | 122° |
| 2026-05-06 10:47 | 42.59673 | 18.17897 | 1649 ft | 145 kts | 122° |
| 2026-05-06 10:47 | 42.59217 | 18.19042 | 1519 ft | 130 kts | 122° |
| 2026-05-06 10:47 | 42.58804 | 18.20087 | 1312 ft | 124 kts | 122° |
| 2026-05-06 10:48 | 42.58386 | 18.21137 | 1160 ft | 128 kts | 122° |
| 2026-05-06 10:48 | 42.57969 | 18.22193 | 1004 ft | 126 kts | 124° |
| 2026-05-06 10:48 | 42.57546 | 18.23257 | 831 ft | 133 kts | 121° |
| 2026-05-06 10:48 | 42.57111 | 18.24362 | 657 ft | 131 kts | 121° |
| 2026-05-06 10:49 | 42.56699 | 18.25404 | 534 ft | 113 kts | 120° |
| 2026-05-06 10:49 | 42.56405 | 18.26147 | 534 ft | 65 kts | 118° |
| 2026-05-06 10:49 | 42.56265 | 18.26502 | 533 ft | 30 kts | 117° |
| 2026-05-06 10:49 | 42.56180 | 18.26632 | 534 ft | 13 kts | 186° |
| 2026-05-06 10:50 | 42.56125 | 18.26535 | 534 ft | 13 kts | 242° |
| 2026-05-06 10:50 | 42.56110 | 18.26498 | 534 ft | 1 kts | 240° |
| 2026-05-06 10:50 | 42.56108 | 18.26495 | 534 ft | 0 kts | 240° |
| 2026-05-06 10:50 | 42.56102 | 18.26477 | 534 ft | 4 kts | 247° |
| 2026-05-06 10:51 | 42.56104 | 18.26423 | 534 ft | 8 kts | 288° |
| 2026-05-06 10:51 | 42.56133 | 18.26357 | 534 ft | 6 kts | 296° |
| 2026-05-06 10:51 | 42.56116 | 18.26323 | 534 ft | 4 kts | 211° |
| 2026-05-06 10:51 | 42.56096 | 18.26308 | 534 ft | 3 kts | 209° |
| 2026-05-06 10:52 | 42.56089 | 18.26303 | 534 ft | 0 kts | 208° |